Time;durP1;ratioP1;P1;durP2;ratioP2;P2;SDS_P1;SDS_P2;PMS_P1;PMS_P2;Temp;Humidity;BMP_temperature;BMP_pressure;BME280_temperature;BME280_humidity;BME280_pressure;Samples;Min_cycle;Max_cycle;Signal;HPM_P1;HPM_P2
2023/01/17 00:00:52;;;;;;;;;;;;;;;20.63;35.89;99686.34;105932;1285;61272;-80
2023/01/17 00:03:19;;;;;;;;;;;;;;;20.63;35.81;99681.52;105946;1285;72730;-80
2023/01/17 00:11:12;;;;;;;;;;;;;;;20.62;35.72;99684.97;105968;1285;61245;-81
2023/01/17 00:13:38;;;;;;;;;;;;;;;20.62;35.88;99683.23;105848;1285;61323;-81
2023/01/17 00:16:04;;;;;;;;;;;;;;;20.62;35.73;99677.15;105890;1286;61268;-81
2023/01/17 00:18:30;;;;;;;;;;;;;;;20.61;35.87;99668.25;105905;1285;61160;-81
2023/01/17 00:26:24;;;;;;;;;;;;;;;20.60;35.74;99647.55;105897;1286;74509;-81
2023/01/17 01:35:49;;;;;;;;;;;;;;;20.55;35.90;99601.54;105925;1286;61218;-81
2023/01/17 01:38:15;;;;;;;;;;;;;;;20.55;35.87;99592.29;105906;1286;61157;-81
2023/01/17 01:40:44;;;;;;;;;;;;;;;20.55;35.77;99587.63;105907;1284;61273;-81
2023/01/17 01:43:10;;;;;;;;;;;;;;;20.55;35.96;99590.34;105925;1285;74470;-81
2023/01/17 01:45:35;;;;;;;;;;;;;;;20.54;35.88;99591.80;105983;1285;61303;-81
2023/01/17 01:48:02;;;;;;;;;;;;;;;20.54;35.90;99594.17;105938;1286;61294;-81
2023/01/17 01:50:29;;;;;;;;;;;;;;;20.54;35.91;99600.23;105955;1285;61266;-81
2023/01/17 01:52:56;;;;;;;;;;;;;;;20.54;35.84;99598.44;105897;1285;61166;-81
2023/01/17 01:55:23;;;;;;;;;;;;;;;20.54;35.90;99610.59;105850;1285;61337;-81
2023/01/17 01:57:49;;;;;;;;;;;;;;;20.53;35.89;99607.08;105966;1286;61377;-81
2023/01/17 02:00:17;;;;;;;;;;;;;;;20.53;35.98;99597.77;105948;1285;72552;-81
2023/01/17 02:02:43;;;;;;;;;;;;;;;20.53;35.83;99591.53;105900;1285;74170;-81
2023/01/17 02:05:08;;;;;;;;;;;;;;;20.53;35.78;99587.64;105926;1286;61272;-81
2023/01/17 02:07:35;;;;;;;;;;;;;;;20.53;35.98;99574.90;105936;1284;61239;-81
2023/01/17 02:10:01;;;;;;;;;;;;;;;20.52;35.85;99571.23;105939;1286;61305;-81
2023/01/17 02:12:27;;;;;;;;;;;;;;;20.53;35.92;99562.47;105860;1288;61174;-81
2023/01/17 02:14:52;;;;;;;;;;;;;;;20.53;35.95;99567.30;105970;1286;61259;-81
2023/01/17 02:17:24;;;;;;;;;;;;;;;20.52;35.74;99565.18;105729;1284;61342;-81
2023/01/17 02:20:08;;;;;;;;;;;;;;;20.52;35.81;99557.33;105906;1286;72455;-81
2023/01/17 02:22:53;;;;;;;;;;;;;;;20.52;35.99;99550.55;105905;1285;74401;-81
2023/01/17 02:25:37;;;;;;;;;;;;;;;20.52;35.83;99540.56;105981;1285;61279;-81
2023/01/17 02:28:16;;;;;;;;;;;;;;;20.52;35.86;99538.08;105957;1285;61436;-81
2023/01/17 02:30:41;;;;;;;;;;;;;;;20.52;35.89;99543.08;105925;1286;71960;-81
2023/01/17 02:33:16;;;;;;;;;;;;;;;20.51;36.00;99544.39;105908;1286;61282;-81
2023/01/17 02:35:47;;;;;;;;;;;;;;;20.51;35.80;99542.23;105927;1290;61180;-81
2023/01/17 02:38:15;;;;;;;;;;;;;;;20.50;35.88;99543.35;105948;1286;61546;-80
2023/01/17 02:40:44;;;;;;;;;;;;;;;20.50;35.95;99552.13;105994;1285;73649;-80
2023/01/17 02:43:12;;;;;;;;;;;;;;;20.50;35.85;99560.00;105955;1286;74338;-80
2023/01/17 02:45:38;;;;;;;;;;;;;;;20.50;35.86;99563.38;105701;1286;61288;-80
2023/01/17 02:48:06;;;;;;;;;;;;;;;20.50;35.83;99555.73;105934;1286;61270;-80
2023/01/17 02:50:51;;;;;;;;;;;;;;;20.49;35.86;99548.12;105927;1287;72465;-80
2023/01/17 02:53:28;;;;;;;;;;;;;;;20.49;35.84;99552.04;105929;1285;74444;-80
2023/01/17 02:55:54;;;;;;;;;;;;;;;20.49;35.94;99551.67;105909;1286;61254;-80
2023/01/17 02:58:38;;;;;;;;;;;;;;;20.49;36.01;99542.05;105980;1285;61228;-80
2023/01/17 03:01:17;;;;;;;;;;;;;;;20.49;35.90;99543.52;105959;1286;72703;-81
2023/01/17 03:03:50;;;;;;;;;;;;;;;20.48;35.91;99549.27;105915;1288;75631;-81
2023/01/17 03:06:18;;;;;;;;;;;;;;;20.48;36.07;99548.21;105955;1285;61166;-81
2023/01/17 03:08:44;;;;;;;;;;;;;;;20.48;35.78;99535.20;105909;1285;61164;-81
2023/01/17 03:11:09;;;;;;;;;;;;;;;20.48;35.88;99531.25;105941;1284;61384;-81
2023/01/17 03:13:35;;;;;;;;;;;;;;;20.48;35.93;99511.44;105937;1291;61220;-81
2023/01/17 03:16:02;;;;;;;;;;;;;;;20.47;35.86;99501.84;105935;1286;61388;-81
2023/01/17 03:18:27;;;;;;;;;;;;;;;20.47;35.97;99531.13;105909;1286;61262;-81
2023/01/17 03:20:53;;;;;;;;;;;;;;;20.47;35.87;99534.03;105700;1286;61347;-81
2023/01/17 03:23:18;;;;;;;;;;;;;;;20.47;35.89;99537.98;105950;1286;61371;-81
2023/01/17 03:25:44;;;;;;;;;;;;;;;20.47;35.82;99545.50;105913;1286;75513;-81
2023/01/17 03:28:09;;;;;;;;;;;;;;;20.47;35.89;99552.45;105931;1286;61243;-80
2023/01/17 03:30:35;;;;;;;;;;;;;;;20.46;35.82;99539.81;105926;1284;61231;-80
2023/01/17 03:33:00;;;;;;;;;;;;;;;20.46;35.85;99532.30;105868;1285;61297;-80
2023/01/17 03:35:27;;;;;;;;;;;;;;;20.46;35.87;99530.90;105918;1286;61314;-80
2023/01/17 03:37:52;;;;;;;;;;;;;;;20.45;35.93;99533.27;106016;1286;74594;-80
2023/01/17 03:40:18;;;;;;;;;;;;;;;20.45;35.80;99527.90;105968;1285;61233;-80
2023/01/17 03:42:43;;;;;;;;;;;;;;;20.45;35.92;99520.77;105884;1286;61336;-80
2023/01/17 03:45:09;;;;;;;;;;;;;;;20.45;35.88;99513.30;105921;1286;61275;-80
2023/01/17 03:47:35;;;;;;;;;;;;;;;20.45;35.97;99509.73;105954;1291;61234;-80
2023/01/17 03:50:01;;;;;;;;;;;;;;;20.44;35.78;99509.75;105922;1285;73911;-80
2023/01/17 03:52:26;;;;;;;;;;;;;;;20.45;35.89;99518.17;105948;1286;61361;-81
2023/01/17 03:54:52;;;;;;;;;;;;;;;20.44;35.77;99519.61;105925;1285;61272;-81
2023/01/17 03:57:17;;;;;;;;;;;;;;;20.43;35.80;99514.12;105932;1286;61234;-81
2023/01/17 03:59:43;;;;;;;;;;;;;;;20.43;35.84;99506.45;105936;1286;61352;-81
2023/01/17 04:02:09;;;;;;;;;;;;;;;20.43;35.90;99499.69;105900;1285;75407;-81
2023/01/17 04:04:34;;;;;;;;;;;;;;;20.43;35.89;99493.41;105970;1284;61265;-81
2023/01/17 04:07:00;;;;;;;;;;;;;;;20.43;35.80;99490.96;105898;1285;61352;-81
2023/01/17 04:09:25;;;;;;;;;;;;;;;20.42;35.83;99498.80;105883;1286;61244;-81
2023/01/17 04:11:52;;;;;;;;;;;;;;;20.42;35.88;99507.06;105971;1286;61281;-81
2023/01/17 04:14:17;;;;;;;;;;;;;;;20.41;35.89;99507.86;105694;1286;75241;-81
2023/01/17 04:16:43;;;;;;;;;;;;;;;20.42;35.94;99519.20;105861;1286;59547;-81
2023/01/17 04:19:11;;;;;;;;;;;;;;;20.42;35.91;99520.17;105931;1286;61367;-80
2023/01/17 04:21:37;;;;;;;;;;;;;;;20.41;35.93;99517.14;105733;1291;72335;-81
2023/01/17 04:24:03;;;;;;;;;;;;;;;20.41;35.91;99513.42;105928;1285;61275;-80
2023/01/17 04:26:28;;;;;;;;;;;;;;;20.41;35.74;99513.61;105705;1285;61301;-80
2023/01/17 04:28:54;;;;;;;;;;;;;;;20.41;35.81;99510.97;105943;1286;61346;-80
2023/01/17 04:31:19;;;;;;;;;;;;;;;20.41;35.80;99513.98;106053;1288;61240;-81
2023/01/17 04:33:45;;;;;;;;;;;;;;;20.40;35.78;99509.20;105888;1286;72796;-81
2023/01/17 04:36:10;;;;;;;;;;;;;;;20.40;35.85;99504.04;105715;1286;61375;-81
2023/01/17 04:38:36;;;;;;;;;;;;;;;20.40;35.91;99502.07;105930;1286;61345;-81
2023/01/17 04:41:02;;;;;;;;;;;;;;;20.40;35.78;99500.84;105912;1285;60670;-81
2023/01/17 04:43:27;;;;;;;;;;;;;;;20.39;35.93;99500.35;105957;1286;61372;-81
2023/01/17 04:45:54;;;;;;;;;;;;;;;20.39;35.95;99501.78;105719;1286;73777;-81
2023/01/17 04:48:19;;;;;;;;;;;;;;;20.39;35.85;99499.80;105908;1291;61174;-81
2023/01/17 04:50:45;;;;;;;;;;;;;;;20.39;35.84;99504.34;105860;1285;61305;-81
2023/01/17 04:53:10;;;;;;;;;;;;;;;20.39;35.86;99507.00;105874;1286;61275;-81
2023/01/17 04:55:36;;;;;;;;;;;;;;;20.39;35.89;99507.23;105906;1291;61296;-81
2023/01/17 04:58:02;;;;;;;;;;;;;;;20.38;35.93;99503.85;105865;1286;61346;-80
2023/01/17 05:00:29;;;;;;;;;;;;;;;20.38;35.93;99505.11;105894;1291;61254;-82
2023/01/17 05:02:54;;;;;;;;;;;;;;;20.38;35.97;99501.55;105931;1286;61250;-81
2023/01/17 05:05:20;;;;;;;;;;;;;;;20.38;35.96;99501.55;105868;1285;61233;-81
2023/01/17 05:07:52;;;;;;;;;;;;;;;20.37;35.83;99500.01;105860;1291;61279;-81
2023/01/17 05:10:17;;;;;;;;;;;;;;;20.37;36.10;99499.02;105718;1286;74195;-81
2023/01/17 05:12:43;;;;;;;;;;;;;;;20.36;35.82;99499.96;105893;1288;61878;-81
2023/01/17 05:15:09;;;;;;;;;;;;;;;20.35;35.89;99498.45;105913;1286;61321;-81
2023/01/17 05:17:34;;;;;;;;;;;;;;;20.34;36.03;99506.06;105927;1291;59870;-81
2023/01/17 05:20:00;;;;;;;;;;;;;;;20.33;35.97;99509.17;105972;1285;61278;-81
2023/01/17 05:22:27;;;;;;;;;;;;;;;20.32;35.87;99512.48;105897;1285;74525;-81
2023/01/17 05:24:53;;;;;;;;;;;;;;;20.30;35.89;99520.98;105856;1286;61968;-81
2023/01/17 05:27:19;;;;;;;;;;;;;;;20.29;35.92;99518.85;105875;1285;61440;-81
2023/01/17 05:29:44;;;;;;;;;;;;;;;20.25;35.77;99530.54;105922;1286;60072;-81
2023/01/17 05:32:10;;;;;;;;;;;;;;;20.23;36.03;99533.27;105837;1286;61371;-82
2023/01/17 05:34:35;;;;;;;;;;;;;;;20.20;36.03;99534.38;105985;1288;61287;-82
2023/01/17 05:37:01;;;;;;;;;;;;;;;20.18;35.89;99545.85;105957;1285;61298;-83
2023/01/17 05:39:26;;;;;;;;;;;;;;;20.15;35.89;99543.56;106016;1286;59411;-82
2023/01/17 05:41:52;;;;;;;;;;;;;;;20.14;35.97;99556.90;106026;1286;61284;-83
2023/01/17 05:44:17;;;;;;;;;;;;;;;20.13;36.09;99562.05;106051;1286;61039;-83
2023/01/17 05:46:43;;;;;;;;;;;;;;;20.12;35.94;99574.42;106083;1286;59441;-80
2023/01/17 05:49:09;;;;;;;;;;;;;;;20.10;36.12;99575.81;105893;1285;59810;-81
2023/01/17 05:51:36;;;;;;;;;;;;;;;20.08;35.93;99583.09;106058;1288;59808;-81
2023/01/17 05:54:05;;;;;;;;;;;;;;;20.06;36.11;99589.00;105922;1289;72277;-82
2023/01/17 05:56:32;;;;;;;;;;;;;;;20.03;35.83;99590.48;106143;1286;74998;-82
2023/01/17 05:58:58;;;;;;;;;;;;;;;20.01;35.98;99604.67;106298;1286;61160;-81
2023/01/17 06:01:25;;;;;;;;;;;;;;;19.96;35.78;99604.77;106098;1286;59995;-82
2023/01/17 06:03:50;;;;;;;;;;;;;;;19.93;35.92;99600.65;105989;1285;61339;-81
2023/01/17 06:06:16;;;;;;;;;;;;;;;19.92;35.76;99603.45;105928;1284;61291;-81
2023/01/17 06:08:41;;;;;;;;;;;;;;;19.91;35.88;99609.52;105979;1286;61336;-82
2023/01/17 06:11:06;;;;;;;;;;;;;;;19.92;35.75;99618.08;106005;1285;61381;-81
2023/01/17 06:13:32;;;;;;;;;;;;;;;19.93;35.65;99620.25;105962;1286;61264;-81
2023/01/17 06:16:01;;;;;;;;;;;;;;;19.96;35.74;99623.82;105933;1284;61231;-81
2023/01/17 06:18:27;;;;;;;;;;;;;;;19.99;35.71;99617.81;106135;1284;75247;-82
2023/01/17 06:20:53;;;;;;;;;;;;;;;20.04;35.51;99620.81;106075;1285;59429;-82
2023/01/17 06:23:19;;;;;;;;;;;;;;;20.10;35.63;99618.31;106165;1286;59372;-82
2023/01/17 06:25:44;;;;;;;;;;;;;;;20.16;35.56;99619.81;106051;1285;61390;-82
2023/01/17 06:28:11;;;;;;;;;;;;;;;20.21;35.36;99617.55;105920;1286;61296;-82
2023/01/17 06:30:36;;;;;;;;;;;;;;;20.28;35.50;99615.04;106179;1285;61220;-82
2023/01/17 06:33:02;;;;;;;;;;;;;;;20.33;35.43;99612.61;106106;1286;62075;-82
2023/01/17 06:35:31;;;;;;;;;;;;;;;20.38;35.40;99613.73;106097;1286;61321;-82
2023/01/17 06:37:58;;;;;;;;;;;;;;;20.44;35.33;99610.94;106138;1286;73782;-82
2023/01/17 06:40:24;;;;;;;;;;;;;;;20.49;35.37;99599.10;106135;1286;74397;-82
2023/01/17 06:42:50;;;;;;;;;;;;;;;20.53;35.28;99600.32;106089;1285;59921;-82
2023/01/17 06:45:16;;;;;;;;;;;;;;;20.58;35.27;99598.98;106110;1286;60868;-82
2023/01/17 06:47:41;;;;;;;;;;;;;;;20.61;35.26;99595.66;106119;1286;59700;-82
2023/01/17 06:50:08;;;;;;;;;;;;;;;20.64;35.17;99595.98;106055;1286;60145;-82
2023/01/17 06:52:33;;;;;;;;;;;;;;;20.66;35.25;99593.14;106020;1286;60853;-82
2023/01/17 06:54:59;;;;;;;;;;;;;;;20.66;35.36;99584.74;106040;1286;59554;-83
2023/01/17 06:57:24;;;;;;;;;;;;;;;20.61;35.59;99578.67;105952;1286;61099;-82
2023/01/17 06:59:50;;;;;;;;;;;;;;;20.56;35.37;99570.52;106108;1285;60965;-82
2023/01/17 07:02:15;;;;;;;;;;;;;;;20.47;35.28;99570.48;106057;1284;60754;-81
2023/01/17 07:04:41;;;;;;;;;;;;;;;20.37;35.47;99579.14;106076;1286;59980;-81
2023/01/17 07:07:07;;;;;;;;;;;;;;;20.37;35.60;99588.45;106045;1289;61199;-81
2023/01/17 07:09:33;;;;;;;;;;;;;;;20.39;35.44;99595.24;106159;1286;60094;-81
2023/01/17 07:12:00;;;;;;;;;;;;;;;20.45;35.48;99600.81;106090;1285;73650;-81
2023/01/17 07:14:26;;;;;;;;;;;;;;;20.50;35.57;99600.38;106537;1286;74912;-81
2023/01/17 07:16:52;;;;;;;;;;;;;;;20.57;35.62;99600.53;106545;1286;59314;-81
2023/01/17 07:19:17;;;;;;;;;;;;;;;20.63;35.50;99591.23;106279;1285;60929;-81
2023/01/17 07:21:43;;;;;;;;;;;;;;;20.69;35.65;99588.26;106491;1285;59324;-81
2023/01/17 07:24:09;;;;;;;;;;;;;;;20.74;35.60;99589.18;106451;1286;60388;-81
2023/01/17 07:26:36;;;;;;;;;;;;;;;20.80;35.63;99591.55;106544;1286;59130;-82
2023/01/17 07:29:03;;;;;;;;;;;;;;;20.86;35.64;99598.30;106543;1285;59856;-81
2023/01/17 07:31:29;;;;;;;;;;;;;;;20.92;35.82;99596.94;106548;1285;59256;-81
2023/01/17 07:33:55;;;;;;;;;;;;;;;20.96;35.77;99590.51;106496;1285;59535;-82
2023/01/17 07:36:20;;;;;;;;;;;;;;;21.00;35.93;99589.61;106417;1286;59680;-81
2023/01/17 07:38:45;;;;;;;;;;;;;;;21.04;36.09;99599.05;106607;1287;59644;-82
2023/01/17 07:41:11;;;;;;;;;;;;;;;21.09;36.14;99598.79;106333;1286;59675;-81
2023/01/17 07:43:37;;;;;;;;;;;;;;;21.14;36.08;99608.79;106448;1286;61425;-81
2023/01/17 07:46:04;;;;;;;;;;;;;;;21.16;36.08;99609.23;106481;1285;59096;-81
2023/01/17 07:48:29;;;;;;;;;;;;;;;21.19;36.20;99592.92;106479;1286;60174;-82
2023/01/17 07:50:55;;;;;;;;;;;;;;;21.20;36.29;99596.17;106390;1286;60899;-82
2023/01/17 07:53:25;;;;;;;;;;;;;;;21.19;36.26;99587.30;106355;1286;59616;-82
2023/01/17 07:55:50;;;;;;;;;;;;;;;21.08;36.11;99584.91;106400;1289;72339;-83
2023/01/17 07:58:18;;;;;;;;;;;;;;;21.00;36.43;99587.67;106370;1286;59670;-82
2023/01/17 08:00:43;;;;;;;;;;;;;;;20.86;36.49;99595.33;106548;1286;59639;-82
2023/01/17 08:03:10;;;;;;;;;;;;;;;20.78;36.43;99600.33;106394;1287;60270;-82
2023/01/17 08:05:36;;;;;;;;;;;;;;;20.73;36.46;99596.27;106468;1287;73490;-82
2023/01/17 08:08:03;;;;;;;;;;;;;;;20.68;36.77;99595.64;106713;1285;59356;-82
2023/01/17 08:10:29;;;;;;;;;;;;;;;20.64;36.63;99594.92;106522;1285;60295;-82
2023/01/17 08:12:54;;;;;;;;;;;;;;;20.61;36.67;99593.35;106120;1285;61167;-81
2023/01/17 08:15:20;;;;;;;;;;;;;;;20.58;36.62;99586.65;105939;1291;59356;-81
2023/01/17 08:17:51;;;;;;;;;;;;;;;20.57;36.63;99582.80;106027;1286;60497;-80
2023/01/17 08:20:17;;;;;;;;;;;;;;;20.57;36.67;99585.45;106161;1289;60912;-80
2023/01/17 08:22:43;;;;;;;;;;;;;;;20.59;36.60;99588.90;106031;1285;62525;-81
2023/01/17 08:25:10;;;;;;;;;;;;;;;20.62;36.70;99585.61;105918;1288;62195;-81
2023/01/17 08:27:35;;;;;;;;;;;;;;;20.64;36.77;99583.46;106008;1286;61308;-81
2023/01/17 08:30:01;;;;;;;;;;;;;;;20.67;36.62;99576.60;105588;1286;733282;-81
2023/01/17 08:32:26;;;;;;;;;;;;;;;20.69;36.93;99565.82;106142;1285;61703;-81
2023/01/17 08:34:52;;;;;;;;;;;;;;;20.72;37.07;99574.89;106039;1286;59665;-82
2023/01/17 08:37:18;;;;;;;;;;;;;;;20.74;37.07;99581.02;106135;1288;74776;-82
2023/01/17 08:39:44;;;;;;;;;;;;;;;20.71;37.06;99586.05;106151;1286;61349;-82
2023/01/17 08:42:09;;;;;;;;;;;;;;;20.69;37.12;99592.88;106052;1286;61288;-83
2023/01/17 08:44:35;;;;;;;;;;;;;;;20.64;37.08;99604.34;106019;1286;61399;-82
2023/01/17 08:47:00;;;;;;;;;;;;;;;20.59;37.18;99607.42;105914;1288;60045;-82
2023/01/17 08:49:26;;;;;;;;;;;;;;;20.56;37.00;99608.29;105891;1289;71516;-82
2023/01/17 08:51:52;;;;;;;;;;;;;;;20.51;37.00;99597.42;105870;1286;60642;-82
2023/01/17 08:54:18;;;;;;;;;;;;;;;20.47;36.88;99597.98;105996;1285;61477;-82
2023/01/17 08:56:45;;;;;;;;;;;;;;;20.42;36.83;99603.02;106149;1286;59409;-82
2023/01/17 08:59:12;;;;;;;;;;;;;;;20.39;36.86;99604.94;105854;1288;61266;-82
2023/01/17 09:01:44;;;;;;;;;;;;;;;20.36;36.81;99602.36;105976;1286;60068;-82
2023/01/17 09:04:13;;;;;;;;;;;;;;;20.30;36.70;99591.07;106413;1288;60586;-82
2023/01/17 09:07:06;;;;;;;;;;;;;;;20.25;36.77;99584.16;106668;1286;61092;-83
2023/01/17 09:09:32;;;;;;;;;;;;;;;20.23;37.00;99578.98;105929;1290;73670;-81
2023/01/17 09:11:57;;;;;;;;;;;;;;;20.20;36.77;99573.70;105493;1292;61461;-83
2023/01/17 09:14:23;;;;;;;;;;;;;;;20.17;36.85;99566.12;105388;1292;61235;-83
2023/01/17 09:16:49;;;;;;;;;;;;;;;20.14;36.73;99555.12;105423;1291;59359;-82
2023/01/17 09:19:15;;;;;;;;;;;;;;;20.12;36.89;99554.25;105382;1292;61365;-82
2023/01/17 09:21:41;;;;;;;;;;;;;;;20.11;36.80;99549.95;105428;1292;60296;-82
2023/01/17 09:24:07;;;;;;;;;;;;;;;20.13;36.82;99549.48;105509;1293;61417;-81
2023/01/17 09:26:32;;;;;;;;;;;;;;;20.16;36.85;99548.83;105411;1291;62118;-81
2023/01/17 09:28:58;;;;;;;;;;;;;;;20.20;36.97;99550.27;105373;1295;59746;-81
2023/01/17 09:31:25;;;;;;;;;;;;;;;20.25;36.81;99551.46;105320;1292;62388;-81
2023/01/17 09:33:51;;;;;;;;;;;;;;;20.30;36.81;99546.98;105283;1292;61209;-81
2023/01/17 09:36:18;;;;;;;;;;;;;;;20.33;36.88;99545.77;105284;1295;59643;-81
2023/01/17 09:38:43;;;;;;;;;;;;;;;20.37;36.86;99542.52;105294;1292;61375;-81
2023/01/17 09:41:18;;;;;;;;;;;;;;;20.40;36.89;99545.49;105283;1292;60032;-81
2023/01/17 09:43:45;;;;;;;;;;;;;;;20.44;36.73;99551.63;105408;1291;73299;-81
2023/01/17 09:46:21;;;;;;;;;;;;;;;20.47;36.80;99551.37;105467;1286;59719;-81
2023/01/17 09:48:46;;;;;;;;;;;;;;;20.50;36.65;99543.23;105874;1286;61161;-81
2023/01/17 09:51:13;;;;;;;;;;;;;;;20.52;36.62;99544.26;105885;1285;59959;-81
2023/01/17 09:53:40;;;;;;;;;;;;;;;20.55;36.67;99543.14;105862;1286;59978;-80
2023/01/17 09:56:13;;;;;;;;;;;;;;;20.58;36.78;99544.67;105879;1286;61180;-82
2023/01/17 09:58:44;;;;;;;;;;;;;;;20.59;36.67;99544.52;105880;1286;61477;-82
2023/01/17 10:01:11;;;;;;;;;;;;;;;20.61;36.76;99543.85;105844;1290;72554;-83
2023/01/17 10:03:36;;;;;;;;;;;;;;;20.58;36.68;99544.48;105875;1286;62602;-81
2023/01/17 10:06:08;;;;;;;;;;;;;;;20.41;36.53;99539.91;105978;1285;61152;-82
2023/01/17 10:08:54;;;;;;;;;;;;;;;20.28;36.68;99537.48;105966;1285;60478;-83
2023/01/17 10:11:29;;;;;;;;;;;;;;;20.24;36.97;99529.89;106019;1286;73379;-82
2023/01/17 10:13:59;;;;;;;;;;;;;;;20.25;37.02;99529.86;106002;1285;74555;-82
2023/01/17 10:16:43;;;;;;;;;;;;;;;20.23;36.92;99531.23;106045;1285;61231;-82
2023/01/17 10:19:18;;;;;;;;;;;;;;;20.21;37.07;99524.29;106125;1285;61021;-83
2023/01/17 10:22:03;;;;;;;;;;;;;;;20.19;37.01;99526.97;106230;1285;73918;-82
2023/01/17 10:24:39;;;;;;;;;;;;;;;20.17;37.20;99527.20;106237;1285;75505;-82
2023/01/17 10:27:09;;;;;;;;;;;;;;;20.17;37.08;99527.17;106219;1285;61466;-83
2023/01/17 10:29:35;;;;;;;;;;;;;;;20.20;37.28;99524.77;105788;1286;61326;-83
2023/01/17 10:32:00;;;;;;;;;;;;;;;20.22;37.34;99525.30;105980;1286;62126;-83
2023/01/17 10:34:35;;;;;;;;;;;;;;;20.25;37.30;99522.52;105936;1285;61036;-82
2023/01/17 10:37:03;;;;;;;;;;;;;;;20.25;37.24;99521.62;106045;1285;61051;-82
2023/01/17 10:39:28;;;;;;;;;;;;;;;20.25;37.24;99511.98;106178;1284;60106;-82
2023/01/17 10:41:54;;;;;;;;;;;;;;;20.27;37.12;99508.42;106105;1285;60385;-83
2023/01/17 10:44:20;;;;;;;;;;;;;;;20.28;37.28;99508.73;106025;1285;61194;-82
2023/01/17 10:46:48;;;;;;;;;;;;;;;20.28;37.20;99510.47;106183;1285;59780;-83
2023/01/17 10:49:15;;;;;;;;;;;;;;;20.29;37.20;99507.55;106228;1286;61157;-82
2023/01/17 10:51:49;;;;;;;;;;;;;;;20.28;37.16;99509.09;106021;1286;73185;-82
2023/01/17 10:54:34;;;;;;;;;;;;;;;20.29;37.20;99499.55;106102;1285;74599;-83
2023/01/17 10:57:00;;;;;;;;;;;;;;;20.28;37.22;99495.66;106216;1285;60155;-82
2023/01/17 10:59:33;;;;;;;;;;;;;;;20.28;37.24;99488.17;105978;1285;61593;-82
2023/01/17 11:02:05;;;;;;;;;;;;;;;20.28;37.19;99493.52;105978;1289;73525;-83
2023/01/17 11:04:35;;;;;;;;;;;;;;;20.30;37.23;99495.81;106183;1284;74523;-81
2023/01/17 11:07:19;;;;;;;;;;;;;;;20.32;37.11;99492.42;106628;1285;60340;-81
2023/01/17 11:09:46;;;;;;;;;;;;;;;20.30;37.23;99492.11;106662;1286;61348;-82
2023/01/17 11:12:19;;;;;;;;;;;;;;;20.21;37.21;99489.08;106070;1286;59995;-82
2023/01/17 11:14:57;;;;;;;;;;;;;;;20.12;37.30;99491.17;106131;1285;75687;-81
2023/01/17 11:17:23;;;;;;;;;;;;;;;20.09;37.47;99480.30;106135;1284;61164;-82
2023/01/17 11:19:50;;;;;;;;;;;;;;;20.10;37.49;99484.14;105903;1286;59471;-83
2023/01/17 11:22:15;;;;;;;;;;;;;;;20.12;37.62;99488.86;106509;1285;59435;-84
2023/01/17 11:24:53;;;;;;;;;;;;;;;20.12;37.63;99486.89;106501;1285;61269;-81
2023/01/17 11:27:32;;;;;;;;;;;;;;;20.10;37.70;99486.34;106002;1285;59995;-83
2023/01/17 11:30:01;;;;;;;;;;;;;;;20.08;37.65;99478.23;106179;1286;60965;-84
2023/01/17 11:32:29;;;;;;;;;;;;;;;20.08;37.52;99472.27;106230;1285;72603;-83
2023/01/17 11:35:13;;;;;;;;;;;;;;;20.05;37.58;99470.55;106169;1285;75349;-82
2023/01/17 11:37:40;;;;;;;;;;;;;;;20.02;37.64;99471.13;106248;1288;59471;-82
2023/01/17 11:40:26;;;;;;;;;;;;;;;20.01;37.73;99470.69;106261;1285;61167;-82
2023/01/17 11:42:58;;;;;;;;;;;;;;;20.01;37.71;99463.89;106187;1285;72129;-82
2023/01/17 11:45:25;;;;;;;;;;;;;;;20.01;37.66;99466.42;106165;1285;74327;-82
2023/01/17 11:48:09;;;;;;;;;;;;;;;19.96;37.84;99462.36;106265;1286;59096;-82
2023/01/17 11:50:36;;;;;;;;;;;;;;;19.95;37.83;99464.05;106674;1285;61014;-82
2023/01/17 11:53:15;;;;;;;;;;;;;;;19.95;37.94;99466.38;106147;1285;73704;-82
2023/01/17 11:55:56;;;;;;;;;;;;;;;19.93;37.98;99464.42;105997;1285;75463;-82
2023/01/17 11:58:23;;;;;;;;;;;;;;;19.94;38.00;99465.07;106237;1285;60914;-83
2023/01/17 12:00:59;;;;;;;;;;;;;;;19.93;38.09;99463.52;105986;1285;60833;-83
2023/01/17 12:03:31;;;;;;;;;;;;;;;19.89;38.12;99451.72;106002;1286;72868;-83
2023/01/17 12:06:04;;;;;;;;;;;;;;;19.81;38.30;99454.05;105964;1285;74684;-83
2023/01/17 12:08:38;;;;;;;;;;;;;;;19.76;38.46;99462.05;106215;1285;60204;-82
2023/01/17 12:11:10;;;;;;;;;;;;;;;19.78;38.50;99461.92;106122;1286;61265;-83
2023/01/17 12:16:52;;;;;;;;;;;;;;;19.74;38.76;99459.20;106089;1288;75400;-83
2023/01/17 12:19:44;;;;;;;;;;;;;;;19.71;38.91;99454.30;105279;1293;60117;-82
2023/01/17 12:22:33;;;;;;;;;;;;;;;19.70;38.80;99448.46;105002;1294;61295;-82
2023/01/17 12:25:13;;;;;;;;;;;;;;;19.72;38.99;99446.53;105138;1295;73480;-82
2023/01/17 12:27:58;;;;;;;;;;;;;;;19.75;39.00;99445.42;105807;1294;73778;-83
2023/01/17 12:30:29;;;;;;;;;;;;;;;19.72;39.00;99449.94;105828;1293;60657;-83
2023/01/17 12:33:04;;;;;;;;;;;;;;;19.75;39.17;99452.73;105271;1294;61383;-83
2023/01/17 12:35:41;;;;;;;;;;;;;;;19.79;39.11;99454.38;105224;1293;72495;-82
2023/01/17 12:38:10;;;;;;;;;;;;;;;19.82;39.12;99451.46;105238;1294;75335;-83
2023/01/17 12:40:38;;;;;;;;;;;;;;;19.84;39.05;99450.22;105119;1296;60889;-82
2023/01/17 12:43:13;;;;;;;;;;;;;;;19.86;39.25;99448.27;105093;1294;61323;-82
2023/01/17 12:45:47;;;;;;;;;;;;;;;19.88;39.24;99449.14;105064;1297;72633;-82
2023/01/17 12:48:17;;;;;;;;;;;;;;;19.90;39.29;99451.99;105075;1294;74552;-82
2023/01/17 12:50:49;;;;;;;;;;;;;;;19.92;39.32;99451.08;105110;1294;61491;-83
2023/01/17 12:53:17;;;;;;;;;;;;;;;19.93;39.36;99447.30;105087;1294;61244;-83
2023/01/17 12:55:46;;;;;;;;;;;;;;;19.90;39.50;99445.69;105347;1284;73392;-83
2023/01/17 12:58:15;;;;;;;;;;;;;;;19.86;39.41;99441.95;106084;1284;74490;-83
2023/01/17 13:00:41;;;;;;;;;;;;;;;19.82;39.46;99442.69;106668;1284;60835;-83
2023/01/17 13:03:23;;;;;;;;;;;;;;;19.77;39.27;99439.36;106700;1284;59374;-84
2023/01/17 13:05:50;;;;;;;;;;;;;;;19.71;39.46;99445.17;106565;1286;72580;-83
2023/01/17 13:08:19;;;;;;;;;;;;;;;19.68;39.62;99444.61;106535;1285;73570;-81
2023/01/17 13:13:28;;;;;;;;;;;;;;;19.63;39.60;99445.16;105408;1291;599196;-81
2023/01/17 13:15:55;;;;;;;;;;;;;;;19.64;39.65;99449.77;105481;1292;58764;-81
2023/01/17 13:18:24;;;;;;;;;;;;;;;19.66;39.79;99456.90;105575;1291;59312;-82
2023/01/17 13:21:10;;;;;;;;;;;;;;;19.69;39.54;99461.80;105676;1291;60240;-81
2023/01/17 13:23:52;;;;;;;;;;;;;;;19.72;39.39;99460.32;105611;1291;72550;-81
2023/01/17 13:26:35;;;;;;;;;;;;;;;19.74;39.61;99464.41;104938;1292;810048;-82
2023/01/17 13:29:20;;;;;;;;;;;;;;;19.77;39.55;99472.16;105660;1289;60126;-82
2023/01/17 13:31:49;;;;;;;;;;;;;;;19.76;39.46;99476.74;105683;1292;60147;-81
2023/01/17 13:34:23;;;;;;;;;;;;;;;19.75;39.44;99474.88;105566;1294;73669;-81
2023/01/17 13:37:08;;;;;;;;;;;;;;;19.79;39.52;99470.44;105716;1289;73004;-81
2023/01/17 13:39:48;;;;;;;;;;;;;;;19.84;39.31;99469.45;105675;1289;59817;-81
2023/01/17 13:42:17;;;;;;;;;;;;;;;19.88;39.36;99469.69;105570;1291;61099;-82
2023/01/17 13:44:42;;;;;;;;;;;;;;;19.92;39.36;99476.98;105431;1290;73222;-81
2023/01/17 13:47:28;;;;;;;;;;;;;;;19.96;39.24;99475.98;105416;1292;59742;-82
2023/01/17 13:49:55;;;;;;;;;;;;;;;19.99;39.23;99479.64;105426;1292;59855;-82
2023/01/17 13:52:24;;;;;;;;;;;;;;;20.01;39.11;99477.64;105475;1289;60844;-82
2023/01/17 13:54:52;;;;;;;;;;;;;;;20.04;39.19;99479.39;105515;1291;73240;-82
2023/01/17 13:57:28;;;;;;;;;;;;;;;20.06;39.23;99477.95;105498;1290;73828;-82
2023/01/17 13:59:56;;;;;;;;;;;;;;;20.07;39.12;99475.47;105639;1288;60845;-82
2023/01/17 14:02:31;;;;;;;;;;;;;;;20.09;39.07;99475.88;105510;1291;60270;-82
2023/01/17 14:05:07;;;;;;;;;;;;;;;20.11;39.12;99476.61;105532;1288;73473;-81
2023/01/17 14:07:34;;;;;;;;;;;;;;;20.12;39.12;99479.15;105648;1289;72177;-81